sensor_id;sensor_type;location;lat;lon;timestamp;pressure;altitude;pressure_sealevel;temperature;humidity
27014;BME280;14556;52.222;4.510;2022-10-16T00:02:17;100686.00;;;12.99;100.00
27014;BME280;14556;52.222;4.510;2022-10-16T00:04:43;100675.66;;;12.96;100.00
27014;BME280;14556;52.222;4.510;2022-10-16T00:07:10;100682.09;;;12.95;100.00
27014;BME280;14556;52.222;4.510;2022-10-16T00:09:36;100692.16;;;13.00;100.00
27014;BME280;14556;52.222;4.510;2022-10-16T00:12:03;100676.34;;;12.91;100.00
27014;BME280;14556;52.222;4.510;2022-10-16T00:14:30;100668.72;;;12.88;100.00
27014;BME280;14556;52.222;4.510;2022-10-16T00:16:57;100683.50;;;12.98;100.00
27014;BME280;14556;52.222;4.510;2022-10-16T00:19:23;100675.09;;;12.94;100.00
27014;BME280;14556;52.222;4.510;2022-10-16T00:21:50;100670.06;;;12.98;100.00
27014;BME280;14556;52.222;4.510;2022-10-16T00:24:16;100681.66;;;12.98;100.00
27014;BME280;14556;52.222;4.510;2022-10-16T00:26:43;100670.69;;;13.00;100.00
27014;BME280;14556;52.222;4.510;2022-10-16T00:29:09;100674.66;;;12.97;100.00
27014;BME280;14556;52.222;4.510;2022-10-16T00:31:36;100665.16;;;12.94;100.00
27014;BME280;14556;52.222;4.510;2022-10-16T00:34:02;100665.38;;;12.93;100.00
27014;BME280;14556;52.222;4.510;2022-10-16T00:36:29;100659.78;;;12.94;100.00
27014;BME280;14556;52.222;4.510;2022-10-16T00:38:57;100660.84;;;12.93;100.00
27014;BME280;14556;52.222;4.510;2022-10-16T00:41:27;100666.81;;;12.96;100.00
27014;BME280;14556;52.222;4.510;2022-10-16T00:43:58;100666.19;;;12.93;100.00
27014;BME280;14556;52.222;4.510;2022-10-16T00:46:28;100674.88;;;12.96;100.00
27014;BME280;14556;52.222;4.510;2022-10-16T00:49:24;100659.66;;;12.82;100.00
27014;BME280;14556;52.222;4.510;2022-10-16T00:51:51;100676.56;;;12.90;100.00
27014;BME280;14556;52.222;4.510;2022-10-16T00:54:22;100676.56;;;12.90;100.00
27014;BME280;14556;52.222;4.510;2022-10-16T00:56:50;100679.84;;;12.92;100.00
27014;BME280;14556;52.222;4.510;2022-10-16T00:59:24;100672.59;;;12.92;100.00
27014;BME280;14556;52.222;4.510;2022-10-16T01:01:52;100676.13;;;12.93;100.00
27014;BME280;14556;52.222;4.510;2022-10-16T01:04:19;100685.22;;;12.92;100.00
27014;BME280;14556;52.222;4.510;2022-10-16T01:07:07;100677.97;;;12.92;100.00
27014;BME280;14556;52.222;4.510;2022-10-16T01:09:37;100696.19;;;12.90;100.00
27014;BME280;14556;52.222;4.510;2022-10-16T01:12:23;100702.19;;;12.86;100.00
27014;BME280;14556;52.222;4.510;2022-10-16T01:20:30;100672.53;;;12.74;100.00
27014;BME280;14556;52.222;4.510;2022-10-16T01:25:55;100688.59;;;12.80;100.00
27014;BME280;14556;52.222;4.510;2022-10-16T01:28:32;100679.34;;;12.76;100.00
27014;BME280;14556;52.222;4.510;2022-10-16T01:31:01;100681.59;;;12.79;100.00
27014;BME280;14556;52.222;4.510;2022-10-16T01:33:42;100689.63;;;12.79;100.00
27014;BME280;14556;52.222;4.510;2022-10-16T01:36:20;100651.81;;;12.55;100.00
27014;BME280;14556;52.222;4.510;2022-10-16T01:38:49;100686.34;;;12.77;100.00
27014;BME280;14556;52.222;4.510;2022-10-16T01:41:26;100690.66;;;12.78;100.00
27014;BME280;14556;52.222;4.510;2022-10-16T01:43:59;100688.19;;;12.77;100.00
27014;BME280;14556;52.222;4.510;2022-10-16T01:46:30;100657.38;;;12.54;100.00
27014;BME280;14556;52.222;4.510;2022-10-16T01:48:59;100698.53;;;12.73;100.00
27014;BME280;14556;52.222;4.510;2022-10-16T01:51:27;100690.31;;;12.75;100.00
27014;BME280;14556;52.222;4.510;2022-10-16T01:53:57;100662.75;;;12.54;100.00
27014;BME280;14556;52.222;4.510;2022-10-16T01:56:25;100688.25;;;12.70;100.00
27014;BME280;14556;52.222;4.510;2022-10-16T01:58:56;100679.22;;;12.64;100.00
27014;BME280;14556;52.222;4.510;2022-10-16T02:01:26;100699.16;;;12.75;100.00
27014;BME280;14556;52.222;4.510;2022-10-16T02:03:57;100686.22;;;12.65;100.00
27014;BME280;14556;52.222;4.510;2022-10-16T02:06:25;100703.72;;;12.75;100.00
27014;BME280;14556;52.222;4.510;2022-10-16T02:08:53;100701.84;;;12.75;100.00
27014;BME280;14556;52.222;4.510;2022-10-16T02:11:19;100700.41;;;12.73;100.00
27014;BME280;14556;52.222;4.510;2022-10-16T02:13:53;100699.81;;;12.71;100.00
27014;BME280;14556;52.222;4.510;2022-10-16T02:16:33;100701.66;;;12.70;100.00
27014;BME280;14556;52.222;4.510;2022-10-16T02:19:00;100709.72;;;12.70;100.00
27014;BME280;14556;52.222;4.510;2022-10-16T02:21:30;100688.13;;;12.58;100.00
27014;BME280;14556;52.222;4.510;2022-10-16T02:24:03;100714.28;;;12.69;100.00
27014;BME280;14556;52.222;4.510;2022-10-16T02:26:41;100703.38;;;12.64;100.00
27014;BME280;14556;52.222;4.510;2022-10-16T02:29:11;100708.53;;;12.66;100.00
27014;BME280;14556;52.222;4.510;2022-10-16T02:31:43;100707.91;;;12.64;100.00
27014;BME280;14556;52.222;4.510;2022-10-16T02:34:14;100689.22;;;12.50;100.00
27014;BME280;14556;52.222;4.510;2022-10-16T02:36:42;100707.91;;;12.64;100.00
27014;BME280;14556;52.222;4.510;2022-10-16T02:39:10;100711.03;;;12.61;100.00
27014;BME280;14556;52.222;4.510;2022-10-16T02:41:37;100710.41;;;12.59;100.00
27014;BME280;14556;52.222;4.510;2022-10-16T02:44:04;100718.69;;;12.57;100.00
27014;BME280;14556;52.222;4.510;2022-10-16T02:46:30;100731.28;;;12.56;100.00
27014;BME280;14556;52.222;4.510;2022-10-16T02:48:57;100728.59;;;12.56;100.00
27014;BME280;14556;52.222;4.510;2022-10-16T02:51:23;100730.88;;;12.53;100.00
27014;BME280;14556;52.222;4.510;2022-10-16T02:53:51;100729.63;;;12.55;100.00
27014;BME280;14556;52.222;4.510;2022-10-16T02:56:17;100733.56;;;12.53;100.00
27014;BME280;14556;52.222;4.510;2022-10-16T02:58:44;100736.03;;;12.54;100.00
27014;BME280;14556;52.222;4.510;2022-10-16T03:01:11;100734.38;;;12.53;100.00
27014;BME280;14556;52.222;4.510;2022-10-16T03:03:40;100730.66;;;12.54;100.00
27014;BME280;14556;52.222;4.510;2022-10-16T03:06:06;100726.94;;;12.55;100.00
27014;BME280;14556;52.222;4.510;2022-10-16T03:08:32;100723.44;;;12.55;100.00
27014;BME280;14556;52.222;4.510;2022-10-16T03:10:59;100732.50;;;12.54;100.00
27014;BME280;14556;52.222;4.510;2022-10-16T03:13:25;100735.00;;;12.55;100.00
27014;BME280;14556;52.222;4.510;2022-10-16T03:15:51;100729.47;;;12.50;100.00
27014;BME280;14556;52.222;4.510;2022-10-16T03:18:19;100727.78;;;12.49;100.00
27014;BME280;14556;52.222;4.510;2022-10-16T03:20:46;100725.09;;;12.49;100.00
27014;BME280;14556;52.222;4.510;2022-10-16T03:23:12;100735.63;;;12.51;100.00
27014;BME280;14556;52.222;4.510;2022-10-16T03:25:39;100734.59;;;12.52;100.00
27014;BME280;14556;52.222;4.510;2022-10-16T03:28:07;100742.25;;;12.48;100.00
27014;BME280;14556;52.222;4.510;2022-10-16T03:30:33;100751.09;;;12.49;100.00
27014;BME280;14556;52.222;4.510;2022-10-16T03:32:59;100753.19;;;12.47;100.00
27014;BME280;14556;52.222;4.510;2022-10-16T03:35:26;100752.78;;;12.50;100.00
27014;BME280;14556;52.222;4.510;2022-10-16T03:37:52;100763.50;;;12.50;100.00
27014;BME280;14556;52.222;4.510;2022-10-16T03:40:19;100755.66;;;12.48;100.00
27014;BME280;14556;52.222;4.510;2022-10-16T03:42:46;100762.66;;;12.49;100.00
27014;BME280;14556;52.222;4.510;2022-10-16T03:45:13;100763.50;;;12.50;100.00
27014;BME280;14556;52.222;4.510;2022-10-16T03:47:39;100757.31;;;12.49;100.00
27014;BME280;14556;52.222;4.510;2022-10-16T03:50:06;100783.69;;;12.52;100.00
27014;BME280;14556;52.222;4.510;2022-10-16T03:52:33;100766.41;;;12.48;100.00
27014;BME280;14556;52.222;4.510;2022-10-16T03:54:59;100778.56;;;12.51;100.00
27014;BME280;14556;52.222;4.510;2022-10-16T03:57:26;100781.66;;;12.48;100.00
27014;BME280;14556;52.222;4.510;2022-10-16T03:59:53;100772.00;;;12.40;100.00
27014;BME280;14556;52.222;4.510;2022-10-16T04:02:19;100786.81;;;12.49;100.00
27014;BME280;14556;52.222;4.510;2022-10-16T04:04:45;100774.88;;;12.45;100.00
27014;BME280;14556;52.222;4.510;2022-10-16T04:07:12;100783.13;;;12.43;100.00
27014;BME280;14556;52.222;4.510;2022-10-16T04:09:38;100779.41;;;12.44;100.00
27014;BME280;14556;52.222;4.510;2022-10-16T04:12:05;100786.81;;;12.49;100.00
27014;BME280;14556;52.222;4.510;2022-10-16T04:14:31;100785.97;;;12.49;100.00
27014;BME280;14556;52.222;4.510;2022-10-16T04:16:58;100780.03;;;12.47;100.00
27014;BME280;14556;52.222;4.510;2022-10-16T04:19:24;100782.09;;;12.44;100.00
27014;BME280;14556;52.222;4.510;2022-10-16T04:21:51;100792.00;;;12.44;100.00
27014;BME280;14556;52.222;4.510;2022-10-16T04:24:17;100790.97;;;12.45;100.00
27014;BME280;14556;52.222;4.510;2022-10-16T04:26:44;100803.97;;;12.48;100.00
27014;BME280;14556;52.222;4.510;2022-10-16T04:29:10;100784.16;;;12.42;100.00
27014;BME280;14556;52.222;4.510;2022-10-16T04:31:36;100804.97;;;12.47;100.00
27014;BME280;14556;52.222;4.510;2022-10-16T04:34:03;100811.59;;;12.44;100.00
27014;BME280;14556;52.222;4.510;2022-10-16T04:36:29;100811.59;;;12.44;100.00
27014;BME280;14556;52.222;4.510;2022-10-16T04:38:56;100812.44;;;12.45;100.00
27014;BME280;14556;52.222;4.510;2022-10-16T04:41:22;100821.28;;;12.45;100.00
27014;BME280;14556;52.222;4.510;2022-10-16T04:43:49;100825.22;;;12.43;100.00
27014;BME280;14556;52.222;4.510;2022-10-16T04:46:15;100842.34;;;12.42;100.00
27014;BME280;14556;52.222;4.510;2022-10-16T04:48:41;100852.28;;;12.41;100.00
27014;BME280;14556;52.222;4.510;2022-10-16T04:51:08;100854.97;;;12.41;100.00
27014;BME280;14556;52.222;4.510;2022-10-16T04:53:34;100845.88;;;12.36;100.00
27014;BME280;14556;52.222;4.510;2022-10-16T04:56:01;100848.34;;;12.37;100.00
27014;BME280;14556;52.222;4.510;2022-10-16T04:58:27;100862.81;;;12.36;100.00
27014;BME280;14556;52.222;4.510;2022-10-16T05:00:54;100857.63;;;12.35;100.00
27014;BME280;14556;52.222;4.510;2022-10-16T05:03:20;100866.28;;;12.37;100.00
27014;BME280;14556;52.222;4.510;2022-10-16T05:05:47;100872.91;;;12.34;100.00
27014;BME280;14556;52.222;4.510;2022-10-16T05:08:15;100876.22;;;12.29;100.00
27014;BME280;14556;52.222;4.510;2022-10-16T05:10:44;100881.78;;;12.28;100.00
27014;BME280;14556;52.222;4.510;2022-10-16T05:13:11;100878.09;;;12.29;100.00
27014;BME280;14556;52.222;4.510;2022-10-16T05:15:37;100876.63;;;12.26;100.00
27014;BME280;14556;52.222;4.510;2022-10-16T05:18:03;100886.13;;;12.29;100.00
27014;BME280;14556;52.222;4.510;2022-10-16T05:20:30;100903.03;;;12.29;100.00
27014;BME280;14556;52.222;4.510;2022-10-16T05:22:56;100890.25;;;12.25;100.00
27014;BME280;14556;52.222;4.510;2022-10-16T05:25:23;100895.19;;;12.28;100.00
27014;BME280;14556;52.222;4.510;2022-10-16T05:27:50;100899.13;;;12.25;100.00
27014;BME280;14556;52.222;4.510;2022-10-16T05:30:17;100888.63;;;12.24;100.00
27014;BME280;14556;52.222;4.510;2022-10-16T05:32:48;100898.31;;;12.25;100.00
27014;BME280;14556;52.222;4.510;2022-10-16T05:35:17;100904.50;;;12.25;100.00
27014;BME280;14556;52.222;4.510;2022-10-16T05:37:45;100906.97;;;12.20;100.00
27014;BME280;14556;52.222;4.510;2022-10-16T05:40:12;100907.81;;;12.20;100.00
27014;BME280;14556;52.222;4.510;2022-10-16T05:42:39;100907.81;;;12.20;100.00
27014;BME280;14556;52.222;4.510;2022-10-16T05:45:06;100907.59;;;12.22;100.00
27014;BME280;14556;52.222;4.510;2022-10-16T05:47:34;100903.47;;;12.19;100.00
27014;BME280;14556;52.222;4.510;2022-10-16T05:50:01;100909.03;;;12.18;100.00
27014;BME280;14556;52.222;4.510;2022-10-16T05:52:27;100909.03;;;12.18;100.00
27014;BME280;14556;52.222;4.510;2022-10-16T05:54:54;100915.84;;;12.20;100.00
27014;BME280;14556;52.222;4.510;2022-10-16T05:57:20;100914.41;;;12.18;100.00
27014;BME280;14556;52.222;4.510;2022-10-16T05:59:47;100911.31;;;12.14;100.00
27014;BME280;14556;52.222;4.510;2022-10-16T06:02:13;100908.00;;;12.12;100.00
27014;BME280;14556;52.222;4.510;2022-10-16T06:04:40;100913.78;;;12.16;100.00
27014;BME280;14556;52.222;4.510;2022-10-16T06:07:07;100922.66;;;12.16;100.00
27014;BME280;14556;52.222;4.510;2022-10-16T06:09:34;100921.03;;;12.15;100.00
27014;BME280;14556;52.222;4.510;2022-10-16T06:12:00;100916.06;;;12.12;100.00
27014;BME280;14556;52.222;4.510;2022-10-16T06:14:27;100937.69;;;12.17;100.00
27014;BME280;14556;52.222;4.510;2022-10-16T06:16:53;100927.41;;;12.14;100.00
27014;BME280;14556;52.222;4.510;2022-10-16T06:19:20;100929.44;;;12.12;100.00
27014;BME280;14556;52.222;4.510;2022-10-16T06:21:46;100946.59;;;12.11;100.00
27014;BME280;14556;52.222;4.510;2022-10-16T06:24:13;100935.41;;;12.07;100.00
27014;BME280;14556;52.222;4.510;2022-10-16T06:26:39;100946.38;;;12.13;100.00
27014;BME280;14556;52.222;4.510;2022-10-16T06:29:05;100947.59;;;12.10;100.00
27014;BME280;14556;52.222;4.510;2022-10-16T06:31:32;100960.00;;;12.11;100.00
27014;BME280;14556;52.222;4.510;2022-10-16T06:33:59;100954.84;;;12.09;100.00
27014;BME280;14556;52.222;4.510;2022-10-16T06:36:27;100955.66;;;12.10;100.00
27014;BME280;14556;52.222;4.510;2022-10-16T06:38:54;100964.53;;;12.11;100.00
27014;BME280;14556;52.222;4.510;2022-10-16T06:41:22;100961.19;;;12.08;100.00
27014;BME280;14556;52.222;4.510;2022-10-16T06:43:48;100967.59;;;12.07;100.00
27014;BME280;14556;52.222;4.510;2022-10-16T06:46:18;100966.13;;;12.05;100.00
27014;BME280;14556;52.222;4.510;2022-10-16T06:48:47;100964.91;;;12.07;100.00
27014;BME280;14556;52.222;4.510;2022-10-16T06:51:18;100964.06;;;12.07;100.00
27014;BME280;14556;52.222;4.510;2022-10-16T06:53:47;100951.91;;;11.97;100.00
27014;BME280;14556;52.222;4.510;2022-10-16T06:56:29;100975.25;;;12.11;100.00
27014;BME280;14556;52.222;4.510;2022-10-16T06:58:58;100972.94;;;12.01;100.00
27014;BME280;14556;52.222;4.510;2022-10-16T07:01:25;100989.03;;;12.07;100.00
27014;BME280;14556;52.222;4.510;2022-10-16T07:03:52;100996.66;;;12.04;100.00
27014;BME280;14556;52.222;4.510;2022-10-16T07:06:21;100999.97;;;12.06;100.00
27014;BME280;14556;52.222;4.510;2022-10-16T07:08:48;100991.28;;;11.97;100.00
27014;BME280;14556;52.222;4.510;2022-10-16T07:11:17;101009.22;;;12.03;100.00
27014;BME280;14556;52.222;4.510;2022-10-16T07:13:45;101016.69;;;12.08;100.00
27014;BME280;14556;52.222;4.510;2022-10-16T07:16:22;101029.72;;;12.11;100.00
27014;BME280;14556;52.222;4.510;2022-10-16T07:18:48;101031.75;;;12.16;100.00
27014;BME280;14556;52.222;4.510;2022-10-16T07:21:17;101028.03;;;12.10;100.00
27014;BME280;14556;52.222;4.510;2022-10-16T07:23:46;101050.53;;;12.23;100.00
27014;BME280;14556;52.222;4.510;2022-10-16T07:26:16;101046.66;;;12.25;100.00
27014;BME280;14556;52.222;4.510;2022-10-16T07:28:43;101065.00;;;12.35;100.00
27014;BME280;14556;52.222;4.510;2022-10-16T07:31:12;101066.66;;;12.36;100.00
27014;BME280;14556;52.222;4.510;2022-10-16T07:33:41;101051.81;;;12.27;100.00
27014;BME280;14556;52.222;4.510;2022-10-16T07:36:12;101080.50;;;12.47;100.00
27014;BME280;14556;52.222;4.510;2022-10-16T07:38:42;101091.66;;;12.50;100.00
27014;BME280;14556;52.222;4.510;2022-10-16T07:41:16;101073.47;;;12.45;100.00
27014;BME280;14556;52.222;4.510;2022-10-16T07:43:51;101091.88;;;12.62;100.00
27014;BME280;14556;52.222;4.510;2022-10-16T07:46:20;101095.56;;;12.68;100.00
27014;BME280;14556;52.222;4.510;2022-10-16T07:48:47;101096.38;;;12.68;100.00
27014;BME280;14556;52.222;4.510;2022-10-16T07:51:16;101099.91;;;12.76;100.00
27014;BME280;14556;52.222;4.510;2022-10-16T07:53:43;101107.53;;;12.79;100.00
27014;BME280;14556;52.222;4.510;2022-10-16T07:56:09;101112.09;;;12.85;100.00
27014;BME280;14556;52.222;4.510;2022-10-16T07:58:36;101098.25;;;12.81;100.00
27014;BME280;14556;52.222;4.510;2022-10-16T08:01:10;101114.56;;;12.93;100.00
27014;BME280;14556;52.222;4.510;2022-10-16T08:03:37;101115.59;;;13.06;100.00
27014;BME280;14556;52.222;4.510;2022-10-16T08:06:04;101124.66;;;13.18;100.00
27014;BME280;14556;52.222;4.510;2022-10-16T08:08:31;101123.63;;;13.20;100.00
27014;BME280;14556;52.222;4.510;2022-10-16T08:10:58;101132.25;;;13.42;100.00
27014;BME280;14556;52.222;4.510;2022-10-16T08:13:25;101135.50;;;13.64;100.00
27014;BME280;14556;52.222;4.510;2022-10-16T08:15:53;101130.53;;;13.68;100.00
27014;BME280;14556;52.222;4.510;2022-10-16T08:18:20;101118.19;;;13.53;100.00
27014;BME280;14556;52.222;4.510;2022-10-16T08:20:46;101137.22;;;13.59;100.00
27014;BME280;14556;52.222;4.510;2022-10-16T08:23:13;101142.78;;;13.64;100.00
27014;BME280;14556;52.222;4.510;2022-10-16T08:25:40;101143.75;;;13.83;100.00
27014;BME280;14556;52.222;4.510;2022-10-16T08:28:09;101157.47;;;14.07;100.00
27014;BME280;14556;52.222;4.510;2022-10-16T08:30:36;101156.03;;;14.11;100.00
27014;BME280;14556;52.222;4.510;2022-10-16T08:33:03;101151.66;;;14.10;100.00
27014;BME280;14556;52.222;4.510;2022-10-16T08:35:30;101169.41;;;14.25;100.00
27014;BME280;14556;52.222;4.510;2022-10-16T08:37:56;101151.22;;;14.13;100.00
27014;BME280;14556;52.222;4.510;2022-10-16T08:40:28;101161.38;;;14.18;100.00
27014;BME280;14556;52.222;4.510;2022-10-16T08:46:04;101161.19;;;14.06;100.00
27014;BME280;14556;52.222;4.510;2022-10-16T08:51:05;101174.38;;;14.21;100.00
27014;BME280;14556;52.222;4.510;2022-10-16T08:53:43;101194.78;;;14.43;100.00
27014;BME280;14556;52.222;4.510;2022-10-16T08:56:11;101204.84;;;14.54;100.00
27014;BME280;14556;52.222;4.510;2022-10-16T08:58:37;101202.88;;;14.68;100.00
27014;BME280;14556;52.222;4.510;2022-10-16T09:01:11;101209.97;;;14.95;100.00
27014;BME280;14556;52.222;4.510;2022-10-16T09:06:46;101211.38;;;15.67;100.00
27014;BME280;14556;52.222;4.510;2022-10-16T09:12:35;101213.06;;;15.24;100.00
27014;BME280;14556;52.222;4.510;2022-10-16T09:15:29;101221.38;;;14.97;100.00
27014;BME280;14556;52.222;4.510;2022-10-16T09:18:06;101225.03;;;14.70;100.00
27014;BME280;14556;52.222;4.510;2022-10-16T09:23:37;101237.09;;;14.61;100.00
27014;BME280;14556;52.222;4.510;2022-10-16T09:26:04;101237.81;;;14.82;100.00
27014;BME280;14556;52.222;4.510;2022-10-16T09:28:31;101232.09;;;15.04;100.00
27014;BME280;14556;52.222;4.510;2022-10-16T09:30:58;101216.94;;;15.03;100.00
27014;BME280;14556;52.222;4.510;2022-10-16T09:33:29;101229.34;;;15.10;100.00
27014;BME280;14556;52.222;4.510;2022-10-16T09:35:57;101233.16;;;14.96;100.00
27014;BME280;14556;52.222;4.510;2022-10-16T09:38:26;101242.22;;;15.34;100.00
27014;BME280;14556;52.222;4.510;2022-10-16T09:40:55;101231.84;;;15.56;100.00
27014;BME280;14556;52.222;4.510;2022-10-16T09:43:54;101209.59;;;15.80;100.00
27014;BME280;14556;52.222;4.510;2022-10-16T09:48:56;101226.66;;;16.91;100.00
27014;BME280;14556;52.222;4.510;2022-10-16T09:51:31;101233.75;;;17.28;100.00
27014;BME280;14556;52.222;4.510;2022-10-16T09:56:37;101219.13;;;17.90;100.00
27014;BME280;14556;52.222;4.510;2022-10-16T09:59:12;101226.59;;;18.11;100.00
27014;BME280;14556;52.222;4.510;2022-10-16T10:01:41;101235.09;;;18.44;100.00
27014;BME280;14556;52.222;4.510;2022-10-16T10:04:10;101223.22;;;18.45;100.00
27014;BME280;14556;52.222;4.510;2022-10-16T10:06:43;101231.84;;;18.30;100.00
27014;BME280;14556;52.222;4.510;2022-10-16T10:09:32;101202.00;;;18.42;100.00
27014;BME280;14556;52.222;4.510;2022-10-16T10:12:03;101216.75;;;18.05;100.00
27014;BME280;14556;52.222;4.510;2022-10-16T10:14:37;101244.09;;;17.68;100.00
27014;BME280;14556;52.222;4.510;2022-10-16T10:19:46;101253.97;;;17.50;100.00
27014;BME280;14556;52.222;4.510;2022-10-16T10:22:40;101253.66;;;18.23;100.00
27014;BME280;14556;52.222;4.510;2022-10-16T10:30:41;101265.75;;;18.62;100.00
27014;BME280;14556;52.222;4.510;2022-10-16T10:33:40;101274.59;;;18.87;100.00
27014;BME280;14556;52.222;4.510;2022-10-16T10:36:37;101268.72;;;18.78;100.00
27014;BME280;14556;52.222;4.510;2022-10-16T10:42:50;101256.53;;;19.09;100.00
27014;BME280;14556;52.222;4.510;2022-10-16T10:45:43;101269.78;;;19.57;100.00
27014;BME280;14556;52.222;4.510;2022-10-16T10:56:11;101280.91;;;20.46;97.62
27014;BME280;14556;52.222;4.510;2022-10-16T10:58:51;101278.19;;;20.46;95.86
27014;BME280;14556;52.222;4.510;2022-10-16T11:04:44;101278.06;;;20.85;87.30
27014;BME280;14556;52.222;4.510;2022-10-16T11:09:56;101278.66;;;20.37;83.37
27014;BME280;14556;52.222;4.510;2022-10-16T11:12:31;101290.41;;;20.43;90.51
27014;BME280;14556;52.222;4.510;2022-10-16T11:15:02;101286.28;;;20.40;88.65
27014;BME280;14556;52.222;4.510;2022-10-16T11:17:45;101289.06;;;20.01;91.46
27014;BME280;14556;52.222;4.510;2022-10-16T11:20:21;101295.53;;;19.77;94.34
27014;BME280;14556;52.222;4.510;2022-10-16T11:23:00;101301.72;;;20.12;97.12
27014;BME280;14556;52.222;4.510;2022-10-16T11:25:32;101289.19;;;20.56;88.10
27014;BME280;14556;52.222;4.510;2022-10-16T11:28:20;101300.13;;;20.89;83.92
27014;BME280;14556;52.222;4.510;2022-10-16T11:31:15;101309.41;;;21.26;84.99
27014;BME280;14556;52.222;4.510;2022-10-16T11:34:17;101299.53;;;21.91;72.94
27014;BME280;14556;52.222;4.510;2022-10-16T11:37:01;101295.22;;;22.05;70.14
27014;BME280;14556;52.222;4.510;2022-10-16T11:39:30;101307.22;;;22.04;75.21
27014;BME280;14556;52.222;4.510;2022-10-16T11:42:04;101288.22;;;21.66;73.91
27014;BME280;14556;52.222;4.510;2022-10-16T11:44:41;101300.34;;;21.48;76.31
27014;BME280;14556;52.222;4.510;2022-10-16T11:53:16;101301.63;;;21.40;77.37
27014;BME280;14556;52.222;4.510;2022-10-16T11:55:48;101315.16;;;20.97;79.49
27014;BME280;14556;52.222;4.510;2022-10-16T12:01:41;101346.06;;;18.97;94.00
27014;BME280;14556;52.222;4.510;2022-10-16T12:04:17;101345.56;;;18.30;100.00
27014;BME280;14556;52.222;4.510;2022-10-16T12:06:52;101354.88;;;17.86;100.00
27014;BME280;14556;52.222;4.510;2022-10-16T12:09:31;101354.66;;;17.76;100.00
27014;BME280;14556;52.222;4.510;2022-10-16T12:11:59;101354.16;;;17.67;100.00
27014;BME280;14556;52.222;4.510;2022-10-16T12:17:00;101365.81;;;17.56;100.00
27014;BME280;14556;52.222;4.510;2022-10-16T12:19:29;101359.22;;;17.51;100.00
27014;BME280;14556;52.222;4.510;2022-10-16T12:21:59;101350.84;;;17.41;100.00
27014;BME280;14556;52.222;4.510;2022-10-16T12:24:35;101365.78;;;17.44;100.00
27014;BME280;14556;52.222;4.510;2022-10-16T12:27:06;101356.38;;;17.34;100.00
27014;BME280;14556;52.222;4.510;2022-10-16T12:29:41;101362.09;;;17.26;100.00
27014;BME280;14556;52.222;4.510;2022-10-16T12:32:30;101382.00;;;17.32;100.00
27014;BME280;14556;52.222;4.510;2022-10-16T12:35:24;101360.69;;;17.23;100.00
27014;BME280;14556;52.222;4.510;2022-10-16T12:37:51;101366.69;;;17.25;100.00
27014;BME280;14556;52.222;4.510;2022-10-16T12:40:33;101347.81;;;17.07;100.00
27014;BME280;14556;52.222;4.510;2022-10-16T12:43:11;101348.28;;;17.03;93.44
27014;BME280;14556;52.222;4.510;2022-10-16T12:45:38;101376.41;;;17.14;100.00
27014;BME280;14556;52.222;4.510;2022-10-16T12:48:20;101376.47;;;17.08;100.00
27014;BME280;14556;52.222;4.510;2022-10-16T12:50:54;101376.06;;;17.11;100.00
27014;BME280;14556;52.222;4.510;2022-10-16T12:53:23;101377.69;;;17.12;100.00
27014;BME280;14556;52.222;4.510;2022-10-16T12:56:10;101365.25;;;17.11;100.00
27014;BME280;14556;52.222;4.510;2022-10-16T13:01:29;101372.88;;;16.95;100.00
27014;BME280;14556;52.222;4.510;2022-10-16T13:04:15;101380.44;;;16.93;100.00
27014;BME280;14556;52.222;4.510;2022-10-16T13:09:53;101371.03;;;16.96;100.00
27014;BME280;14556;52.222;4.510;2022-10-16T13:15:08;101389.28;;;17.00;100.00
27014;BME280;14556;52.222;4.510;2022-10-16T13:18:05;101395.56;;;16.94;100.00
27014;BME280;14556;52.222;4.510;2022-10-16T13:26:09;101403.22;;;16.97;100.00
27014;BME280;14556;52.222;4.510;2022-10-16T13:28:39;101396.72;;;16.86;100.00
27014;BME280;14556;52.222;4.510;2022-10-16T13:31:13;101382.63;;;16.65;100.00
27014;BME280;14556;52.222;4.510;2022-10-16T13:33:43;101428.78;;;16.83;100.00
27014;BME280;14556;52.222;4.510;2022-10-16T13:36:20;101415.84;;;16.85;100.00
27014;BME280;14556;52.222;4.510;2022-10-16T13:38:48;101425.00;;;16.84;100.00
27014;BME280;14556;52.222;4.510;2022-10-16T13:41:18;101418.34;;;16.86;100.00
27014;BME280;14556;52.222;4.510;2022-10-16T13:43:52;101426.88;;;16.83;100.00
27014;BME280;14556;52.222;4.510;2022-10-16T13:46:22;101432.66;;;16.87;100.00
27014;BME280;14556;52.222;4.510;2022-10-16T13:51:25;101412.94;;;16.86;100.00
27014;BME280;14556;52.222;4.510;2022-10-16T13:53:52;101430.88;;;16.80;100.00
27014;BME280;14556;52.222;4.510;2022-10-16T13:56:20;101411.81;;;16.57;100.00
27014;BME280;14556;52.222;4.510;2022-10-16T13:59:02;101420.13;;;16.55;94.71
27014;BME280;14556;52.222;4.510;2022-10-16T14:01:34;101430.19;;;16.66;100.00
27014;BME280;14556;52.222;4.510;2022-10-16T14:04:07;101413.16;;;16.66;98.70
27014;BME280;14556;52.222;4.510;2022-10-16T14:06:35;101428.47;;;16.72;100.00
27014;BME280;14556;52.222;4.510;2022-10-16T14:11:49;101415.78;;;16.73;100.00
27014;BME280;14556;52.222;4.510;2022-10-16T14:14:19;101408.97;;;16.70;100.00
27014;BME280;14556;52.222;4.510;2022-10-16T14:16:45;101392.31;;;16.54;100.00
27014;BME280;14556;52.222;4.510;2022-10-16T14:19:18;101410.09;;;16.62;100.00
27014;BME280;14556;52.222;4.510;2022-10-16T14:21:46;101416.53;;;16.61;100.00
27014;BME280;14556;52.222;4.510;2022-10-16T14:26:47;101410.38;;;16.54;100.00